Time;durP1;ratioP1;P1;durP2;ratioP2;P2;SDS_P1;SDS_P2;PMS_P1;PMS_P2;Temp;Humidity;BMP_temperature;BMP_pressure;BME280_temperature;BME280_humidity;BME280_pressure;Samples;Min_cycle;Max_cycle;Signal;HPM_P1;HPM_P2
2020/12/18 00:01:28;;;;;;;25.40;16.63;;;;;;;5.71;98.44;101706.81;5009246;28;20068;-56
2020/12/18 00:03:55;;;;;;;26.65;17.33;;;;;;;5.68;98.63;101706.91;5027312;28;20136;-59
2020/12/18 00:06:23;;;;;;;24.98;16.77;;;;;;;5.73;98.78;101701.56;5026933;28;20073;-56
2020/12/18 00:08:50;;;;;;;23.48;16.42;;;;;;;5.69;98.90;101706.00;5024216;28;20137;-59
2020/12/18 00:11:24;;;;;;;25.77;15.63;;;;;;;5.80;98.72;101701.38;5024253;28;20069;-53
2020/12/18 00:13:51;;;;;;;29.17;17.98;;;;;;;5.77;97.92;101698.00;5026699;28;20543;-57
2020/12/18 00:16:19;;;;;;;27.17;16.63;;;;;;;5.67;98.49;101705.16;5026113;28;20053;-57
2020/12/18 00:18:46;;;;;;;24.20;15.98;;;;;;;5.77;98.46;101698.00;5026184;28;20045;-58
2020/12/18 00:21:20;;;;;;;28.13;17.38;;;;;;;5.67;98.48;101704.28;5023746;28;20056;-57
2020/12/18 00:23:47;;;;;;;23.80;15.77;;;;;;;5.62;98.67;101703.53;5026078;28;20057;-61
2020/12/18 00:26:15;;;;;;;24.52;16.50;;;;;;;5.54;98.75;101704.56;5026883;28;20065;-57
2020/12/18 00:28:41;;;;;;;27.55;17.52;;;;;;;5.33;98.48;101707.63;5025705;28;20057;-58
2020/12/18 00:31:08;;;;;;;29.95;18.48;;;;;;;5.23;99.79;101713.91;5031564;28;20065;-57
2020/12/18 00:33:35;;;;;;;28.48;18.10;;;;;;;5.32;99.84;101711.13;5027573;28;20049;-58
2020/12/18 00:36:03;;;;;;;31.88;19.55;;;;;;;5.15;99.74;101713.19;5029004;28;20053;-58
2020/12/18 00:38:31;;;;;;;28.83;17.88;;;;;;;5.01;100.00;101719.53;5024930;28;20135;-58
2020/12/18 00:40:58;;;;;;;35.63;19.25;;;;;;;4.92;100.00;101719.69;5027344;28;20054;-60
2020/12/18 00:43:25;;;;;;;30.13;18.23;;;;;;;4.79;100.00;101721.66;5026074;28;20061;-59
2020/12/18 00:45:52;;;;;;;32.42;20.10;;;;;;;4.67;100.00;101721.88;5011101;28;20430;-57
2020/12/18 00:48:18;;;;;;;36.28;21.45;;;;;;;4.71;100.00;101725.28;5026213;28;20048;-60
2020/12/18 00:50:46;;;;;;;33.50;20.48;;;;;;;4.70;100.00;101726.19;5027522;28;20406;-55
2020/12/18 00:53:12;;;;;;;37.22;21.90;;;;;;;4.63;100.00;101729.75;5021327;28;20565;-59
2020/12/18 00:55:39;;;;;;;38.35;20.58;;;;;;;4.54;100.00;101720.34;5010117;28;20430;-59
2020/12/18 00:58:06;;;;;;;36.38;22.52;;;;;;;4.61;100.00;101723.72;5026162;28;20049;-56
2020/12/18 01:00:33;;;;;;;34.47;21.88;;;;;;;4.64;100.00;101728.88;5028609;28;20123;-57
2020/12/18 01:03:00;;;;;;;37.20;23.15;;;;;;;4.53;100.00;101726.44;5006769;28;20061;-56
2020/12/18 01:05:26;;;;;;;32.88;21.27;;;;;;;4.71;100.00;101741.78;5027073;28;20049;-55
2020/12/18 01:07:53;;;;;;;34.78;20.67;;;;;;;4.87;100.00;101739.81;5025900;28;20597;-57
2020/12/18 01:10:20;;;;;;;38.65;22.58;;;;;;;5.17;100.00;101727.06;5003810;28;20454;-58
2020/12/18 01:12:47;;;;;;;34.00;20.90;;;;;;;5.37;100.00;101732.78;5025344;28;20127;-57
2020/12/18 01:15:15;;;;;;;29.88;18.42;;;;;;;5.31;100.00;101738.09;5019414;28;20175;-58
2020/12/18 01:17:41;;;;;;;29.55;19.73;;;;;;;5.60;100.00;101729.69;5010107;28;20057;-58
2020/12/18 01:20:08;;;;;;;30.30;18.15;;;;;;;5.68;98.89;101726.94;5026050;28;20066;-60
2020/12/18 01:22:35;;;;;;;26.65;18.02;;;;;;;5.54;98.35;101728.09;5020787;28;20065;-57
2020/12/18 01:25:02;;;;;;;28.50;17.40;;;;;;;5.41;98.64;101736.19;5026818;28;20053;-55
2020/12/18 01:27:29;;;;;;;26.90;17.83;;;;;;;5.36;99.87;101738.00;5025886;28;20065;-59
2020/12/18 01:29:56;;;;;;;27.83;18.05;;;;;;;5.29;99.78;101737.28;5006752;28;20610;-59
2020/12/18 01:32:23;;;;;;;27.73;18.20;;;;;;;5.28;99.42;101744.25;5025009;28;20057;-59
2020/12/18 01:34:49;;;;;;;28.05;18.08;;;;;;;5.13;99.42;101748.88;5027219;28;20060;-59
2020/12/18 01:37:16;;;;;;;32.20;18.35;;;;;;;5.07;99.98;101748.13;5008336;28;20072;-58
2020/12/18 01:39:43;;;;;;;29.02;18.42;;;;;;;4.99;100.00;101755.22;5032345;28;20060;-57
2020/12/18 01:42:09;;;;;;;27.13;18.20;;;;;;;5.11;100.00;101748.94;5028221;28;20572;-58
2020/12/18 01:44:37;;;;;;;30.33;19.60;;;;;;;5.02;100.00;101760.41;5031156;23;20050;-62
2020/12/18 01:47:17;;;;;;;32.47;18.77;;;;;;;5.14;100.00;101754.09;5022983;28;20049;-61
2020/12/18 01:49:43;;;;;;;28.17;18.48;;;;;;;5.07;100.00;101755.94;5024559;28;20072;-62
2020/12/18 01:52:10;;;;;;;32.20;19.42;;;;;;;5.06;100.00;101754.22;5017860;28;20053;-62
2020/12/18 01:54:37;;;;;;;28.85;18.50;;;;;;;5.03;100.00;101756.03;5024773;28;20082;-58
2020/12/18 01:57:04;;;;;;;34.95;19.52;;;;;;;5.05;100.00;101754.28;5024060;28;20501;-60
2020/12/18 01:59:30;;;;;;;27.85;18.40;;;;;;;5.22;100.00;101753.94;4996716;28;20491;-58
2020/12/18 02:01:57;;;;;;;31.10;19.33;;;;;;;5.12;100.00;101750.66;5023098;28;20511;-60
2020/12/18 02:04:24;;;;;;;28.00;18.35;;;;;;;5.24;100.00;101757.41;5025107;28;20051;-62
2020/12/18 02:06:54;;;;;;;30.35;19.88;;;;;;;5.10;100.00;101762.88;5024955;28;20061;-63
2020/12/18 02:09:21;;;;;;;34.13;20.17;;;;;;;5.07;100.00;101761.16;5020052;28;20057;-62
2020/12/18 02:11:49;;;;;;;32.75;20.60;;;;;;;4.89;100.00;101755.41;5021942;28;20153;-60
2020/12/18 02:14:15;;;;;;;33.95;21.83;;;;;;;4.82;100.00;101765.13;5025657;28;20091;-61
2020/12/18 02:16:42;;;;;;;34.13;19.27;;;;;;;4.79;100.00;101760.78;5023034;28;20298;-62
2020/12/18 02:19:12;;;;;;;39.00;22.27;;;;;;;4.63;100.00;101761.06;5014947;28;20053;-62
2020/12/18 02:21:39;;;;;;;33.38;20.33;;;;;;;4.78;100.00;101768.66;5024718;28;20054;-59
2020/12/18 02:24:07;;;;;;;31.58;20.38;;;;;;;4.77;100.00;101775.63;5011646;28;20491;-60
2020/12/18 02:26:34;;;;;;;36.75;21.80;;;;;;;4.74;100.00;101770.44;5022462;28;20053;-58
2020/12/18 02:29:01;;;;;;;39.22;20.65;;;;;;;4.71;100.00;101774.84;5019112;28;20056;-60
2020/12/18 02:31:28;;;;;;;35.45;21.73;;;;;;;4.63;100.00;101772.34;5023354;28;20053;-58
2020/12/18 02:33:54;;;;;;;31.23;21.25;;;;;;;4.81;100.00;101769.44;5026134;28;20510;-60
2020/12/18 02:36:25;;;;;;;33.70;20.95;;;;;;;4.95;100.00;101777.03;5024134;28;20120;-58
2020/12/18 02:38:56;;;;;;;33.28;21.17;;;;;;;4.75;100.00;101776.53;5033792;28;20069;-56
2020/12/18 02:41:22;;;;;;;35.83;22.05;;;;;;;4.68;100.00;101780.97;5036956;28;20361;-61
2020/12/18 02:43:49;;;;;;;37.70;21.63;;;;;;;4.64;100.00;101779.31;5019222;28;20060;-62
2020/12/18 02:46:18;;;;;;;42.17;22.00;;;;;;;4.64;100.00;101775.81;5020717;28;20065;-61
2020/12/18 02:48:45;;;;;;;34.35;21.58;;;;;;;4.72;100.00;101787.84;5022017;28;20171;-59
2020/12/18 02:51:12;;;;;;;33.45;20.60;;;;;;;4.80;100.00;101775.56;5002047;28;20050;-62
2020/12/18 02:53:39;;;;;;;35.70;20.55;;;;;;;4.70;100.00;101776.59;5022804;28;20053;-61
2020/12/18 02:56:05;;;;;;;38.90;22.83;;;;;;;4.55;100.00;101782.94;5026440;28;20072;-60
2020/12/18 02:58:32;;;;;;;33.97;21.80;;;;;;;4.35;100.00;101781.50;5026301;28;20061;-59
2020/12/18 03:00:59;;;;;;;41.47;23.65;;;;;;;4.19;100.00;101781.72;5027259;28;20056;-62
2020/12/18 03:03:25;;;;;;;40.50;22.50;;;;;;;4.03;100.00;101783.66;5023241;28;20056;-62
2020/12/18 03:05:52;;;;;;;38.60;22.27;;;;;;;4.07;100.00;101784.50;5003376;28;20051;-58
2020/12/18 03:08:19;;;;;;;42.47;23.02;;;;;;;4.21;100.00;101787.75;5016109;28;20096;-62
2020/12/18 03:10:46;;;;;;;42.88;22.98;;;;;;;4.24;100.00;101779.91;5021679;28;20068;-60
2020/12/18 03:13:13;;;;;;;40.95;23.95;;;;;;;4.35;100.00;101778.88;5012767;28;20061;-62
2020/12/18 03:15:39;;;;;;;39.70;22.48;;;;;;;4.32;100.00;101779.78;5006830;28;20070;-58
2020/12/18 03:18:06;;;;;;;40.08;23.33;;;;;;;4.39;100.00;101777.97;5018814;28;20049;-61
2020/12/18 03:20:33;;;;;;;38.30;21.23;;;;;;;4.40;100.00;101777.94;5024299;28;20072;-63
2020/12/18 03:22:59;;;;;;;39.97;23.15;;;;;;;4.33;100.00;101781.53;5031155;28;20050;-62
2020/12/18 03:25:26;;;;;;;43.72;23.02;;;;;;;4.22;100.00;101781.66;5026290;28;20469;-56
2020/12/18 03:27:53;;;;;;;38.33;21.92;;;;;;;4.13;100.00;101786.13;5019947;28;20042;-63
2020/12/18 03:30:20;;;;;;;42.92;23.75;;;;;;;4.18;100.00;101779.97;5021938;28;20061;-61
2020/12/18 03:32:46;;;;;;;40.15;21.85;;;;;;;3.97;100.00;101775.09;5021891;28;20069;-57
2020/12/18 03:35:14;;;;;;;38.50;24.10;;;;;;;3.98;100.00;101775.06;5026064;28;20053;-63
2020/12/18 03:37:41;;;;;;;43.17;23.83;;;;;;;3.80;100.00;101776.16;5017596;28;20125;-59
2020/12/18 03:40:08;;;;;;;44.15;22.30;;;;;;;3.91;100.00;101782.97;5026350;28;20962;-64
2020/12/18 03:42:34;;;;;;;56.05;26.17;;;;;;;3.88;100.00;101778.66;5029764;28;20056;-63
2020/12/18 03:45:02;;;;;;;46.17;25.02;;;;;;;3.61;100.00;101782.47;5027198;28;20064;-62
2020/12/18 03:47:29;;;;;;;42.55;24.65;;;;;;;3.43;100.00;101780.06;5021010;28;20076;-57
2020/12/18 03:49:55;;;;;;;42.05;23.80;;;;;;;3.39;100.00;101781.84;5025358;28;20069;-61
2020/12/18 03:52:22;;;;;;;42.92;24.67;;;;;;;3.71;100.00;101778.88;5021743;28;20415;-62
2020/12/18 03:54:49;;;;;;;52.03;26.25;;;;;;;3.42;100.00;101775.72;5024654;28;20096;-61
2020/12/18 03:57:16;;;;;;;47.83;25.85;;;;;;;3.28;100.00;101781.94;5023798;28;20061;-62
2020/12/18 03:59:42;;;;;;;52.95;27.40;;;;;;;3.19;100.00;101787.22;5017222;28;20072;-59
2020/12/18 04:02:09;;;;;;;53.47;26.65;;;;;;;3.22;100.00;101792.41;5024524;28;20081;-62
2020/12/18 04:04:36;;;;;;;53.13;27.33;;;;;;;3.11;100.00;101799.47;5022965;28;20037;-60
2020/12/18 04:07:03;;;;;;;54.03;27.33;;;;;;;3.08;100.00;101796.91;5019962;28;20057;-61
2020/12/18 04:09:29;;;;;;;59.53;27.83;;;;;;;2.99;100.00;101794.38;5017900;28;20176;-59
2020/12/18 04:11:56;;;;;;;58.53;28.52;;;;;;;2.95;100.00;101790.94;5012363;28;20060;-59
2020/12/18 04:14:23;;;;;;;58.17;29.15;;;;;;;2.96;100.00;101797.84;4998058;28;20050;-59
2020/12/18 04:16:49;;;;;;;58.10;28.48;;;;;;;2.97;100.00;101798.72;5016258;28;20104;-61
2020/12/18 04:19:16;;;;;;;54.42;27.63;;;;;;;3.18;100.00;101797.66;5006527;28;20144;-61
2020/12/18 04:21:43;;;;;;;64.88;29.85;;;;;;;3.13;100.00;101804.66;5013975;28;20085;-61
2020/12/18 04:24:10;;;;;;;63.03;29.30;;;;;;;3.08;100.00;101809.03;5018791;28;20129;-57
2020/12/18 04:26:36;;;;;;;62.95;30.55;;;;;;;3.13;100.00;101802.91;5024583;28;20057;-60
2020/12/18 04:29:03;;;;;;;62.75;30.73;;;;;;;3.22;100.00;101801.97;5020153;28;20045;-62
2020/12/18 04:31:30;;;;;;;57.17;29.38;;;;;;;3.38;100.00;101806.16;5017746;28;20624;-60
2020/12/18 04:33:56;;;;;;;50.97;28.27;;;;;;;3.64;100.00;101805.84;4989792;28;20053;-57
2020/12/18 04:36:23;;;;;;;56.95;28.35;;;;;;;3.59;100.00;101809.38;5005976;28;20056;-59
2020/12/18 04:38:50;;;;;;;48.80;27.15;;;;;;;3.63;100.00;101803.28;5019702;28;20451;-62
2020/12/18 04:41:18;;;;;;;46.63;26.30;;;;;;;3.75;100.00;101808.34;5020472;28;20079;-59
2020/12/18 04:43:45;;;;;;;52.08;26.33;;;;;;;3.89;100.00;101808.19;5025039;28;20637;-60
2020/12/18 04:46:16;;;;;;;45.83;26.17;;;;;;;3.78;100.00;101809.19;5020625;28;20085;-59
2020/12/18 04:48:43;;;;;;;41.08;25.02;;;;;;;3.75;100.00;101816.16;5020117;28;20060;-61
2020/12/18 04:51:16;;;;;;;41.47;23.85;;;;;;;3.83;100.00;101816.03;5022010;28;20876;-59
2020/12/18 04:53:48;;;;;;;38.38;24.15;;;;;;;3.99;100.00;101805.44;4999173;28;20072;-58
2020/12/18 04:56:22;;;;;;;40.05;22.77;;;;;;;4.04;100.00;101797.56;5025525;28;20189;-59
2020/12/18 04:58:54;;;;;;;43.63;24.10;;;;;;;3.85;100.00;101811.69;5004021;28;20061;-59
2020/12/18 05:01:25;;;;;;;38.72;22.27;;;;;;;4.02;100.00;101805.41;5024115;28;20065;-63
2020/12/18 05:03:52;;;;;;;38.58;23.45;;;;;;;3.89;100.00;101805.56;5018667;28;20695;-62
2020/12/18 05:06:19;;;;;;;45.17;23.48;;;;;;;4.05;100.00;101804.47;5006993;28;20053;-59
2020/12/18 05:08:46;;;;;;;41.10;23.50;;;;;;;3.88;100.00;101815.13;5015844;28;20061;-61
2020/12/18 05:11:19;;;;;;;43.92;22.40;;;;;;;3.81;100.00;101808.25;5021098;28;20104;-60
2020/12/18 05:13:46;;;;;;;38.25;23.95;;;;;;;3.92;100.00;101806.41;5015518;28;20054;-60
2020/12/18 05:16:13;;;;;;;41.60;25.13;;;;;;;3.88;100.00;101811.66;5016949;28;20062;-59
2020/12/18 05:18:40;;;;;;;41.85;23.08;;;;;;;3.95;100.00;101798.53;5003664;28;20089;-61
2020/12/18 05:21:07;;;;;;;39.92;23.02;;;;;;;3.84;100.00;101815.19;5019362;28;20054;-61
2020/12/18 05:23:40;;;;;;;37.65;22.90;;;;;;;3.88;100.00;101807.31;5021151;28;20064;-59
2020/12/18 05:26:08;;;;;;;37.58;22.38;;;;;;;3.95;100.00;101816.75;4985351;28;20987;-60
2020/12/18 05:28:37;;;;;;;41.15;23.15;;;;;;;3.98;100.00;101821.94;5019814;28;20064;-56
2020/12/18 05:31:09;;;;;;;37.70;22.60;;;;;;;3.84;100.00;101823.88;5028985;28;20056;-62
2020/12/18 05:33:36;;;;;;;45.33;22.75;;;;;;;4.03;100.00;101816.69;5023879;28;20430;-61
2020/12/18 05:36:02;;;;;;;42.47;22.88;;;;;;;4.14;100.00;101814.78;5024265;28;20072;-61
2020/12/18 05:38:29;;;;;;;38.03;20.88;;;;;;;4.16;100.00;101823.47;5022280;28;20357;-58
2020/12/18 05:41:00;;;;;;;35.97;22.23;;;;;;;4.05;100.00;101827.94;5028212;28;20469;-60
2020/12/18 05:43:35;;;;;;;35.85;21.92;;;;;;;4.06;100.00;101827.06;5019730;28;20077;-61
2020/12/18 05:46:24;;;;;;;37.70;21.02;;;;;;;4.39;100.00;101830.09;5027980;28;20144;-61
2020/12/18 05:49:01;;;;;;;33.70;19.15;;;;;;;4.69;100.00;101834.03;5018867;28;20058;-60
2020/12/18 05:51:33;;;;;;;31.95;19.17;;;;;;;4.73;99.81;101836.56;5028358;28;20605;-62
2020/12/18 05:54:17;;;;;;;29.95;18.88;;;;;;;4.75;99.01;101841.75;5031112;28;20054;-60
2020/12/18 05:56:48;;;;;;;28.88;18.50;;;;;;;4.78;98.73;101837.34;5026067;28;20077;-61
2020/12/18 05:59:17;;;;;;;30.83;18.48;;;;;;;4.75;98.10;101837.38;5020777;28;20057;-58
2020/12/18 06:01:48;;;;;;;31.67;18.77;;;;;;;4.79;97.70;101840.81;5029913;28;20541;-61
2020/12/18 06:04:23;;;;;;;30.77;18.88;;;;;;;4.70;98.99;101830.50;5028403;28;20132;-61
2020/12/18 06:06:55;;;;;;;30.50;18.52;;;;;;;4.81;97.78;101844.25;4997483;28;20602;-61
2020/12/18 06:09:26;;;;;;;29.85;18.88;;;;;;;4.88;96.82;101845.03;5027231;28;20080;-62
2020/12/18 06:11:53;;;;;;;27.45;18.52;;;;;;;4.79;97.46;101839.06;5026680;28;20061;-58
2020/12/18 06:14:20;;;;;;;31.92;19.58;;;;;;;4.64;98.11;101846.25;5029198;28;20537;-61
2020/12/18 06:16:51;;;;;;;32.08;18.90;;;;;;;4.81;97.51;101852.06;5014510;28;20054;-59
2020/12/18 06:19:20;;;;;;;27.70;18.10;;;;;;;4.83;97.31;101847.72;5018830;28;20144;-59
2020/12/18 06:21:58;;;;;;;29.10;18.52;;;;;;;4.80;96.53;101848.59;5015339;28;20053;-60
2020/12/18 06:24:42;;;;;;;31.40;17.90;;;;;;;4.64;97.62;101851.47;5007211;28;20056;-62
2020/12/18 06:27:12;;;;;;;32.53;19.87;;;;;;;4.61;98.16;101851.53;5020012;28;20115;-61
2020/12/18 06:29:39;;;;;;;29.08;18.35;;;;;;;4.63;97.45;101847.13;5019272;28;20468;-57
2020/12/18 06:32:31;;;;;;;32.80;19.33;;;;;;;4.62;97.86;101845.41;5028033;28;20064;-58
2020/12/18 06:35:29;;;;;;;32.97;19.98;;;;;;;4.39;98.48;101850.97;5018568;28;20571;-59
2020/12/18 06:38:15;;;;;;;32.42;19.88;;;;;;;4.34;99.01;101852.78;4992884;28;20510;-62
2020/12/18 06:40:43;;;;;;;31.05;20.17;;;;;;;4.30;98.41;101852.81;5022292;28;20157;-61
2020/12/18 06:43:09;;;;;;;32.88;19.83;;;;;;;4.16;99.64;101856.47;5020898;28;20049;-60
2020/12/18 06:45:37;;;;;;;40.63;21.65;;;;;;;4.04;99.27;101860.09;5024088;28;20098;-59
2020/12/18 06:48:26;;;;;;;40.83;22.67;;;;;;;3.96;99.77;101861.91;5028985;28;20056;-61
2020/12/18 06:50:53;;;;;;;39.65;21.67;;;;;;;3.70;100.00;101867.44;5030413;28;20057;-59
2020/12/18 06:53:19;;;;;;;38.08;21.63;;;;;;;3.71;100.00;101866.56;5032904;28;20123;-61
2020/12/18 06:55:47;;;;;;;39.17;23.02;;;;;;;3.75;100.00;101863.91;5010824;28;20518;-60
2020/12/18 06:58:17;;;;;;;38.05;22.25;;;;;;;3.86;100.00;101863.78;5028337;28;20375;-60
2020/12/18 07:00:50;;;;;;;39.90;21.33;;;;;;;3.76;100.00;101863.00;5026292;28;20538;-60
2020/12/18 07:03:38;;;;;;;35.30;21.63;;;;;;;3.76;100.00;101859.56;5019152;28;20058;-58
2020/12/18 07:06:22;;;;;;;42.17;23.80;;;;;;;3.68;100.00;101862.22;5032652;28;20332;-60
2020/12/18 07:08:50;;;;;;;34.00;23.05;;;;;;;3.79;100.00;101854.31;5020700;28;20057;-60
2020/12/18 07:11:20;;;;;;;44.38;23.40;;;;;;;3.90;100.00;101857.66;5009174;28;20081;-57
2020/12/18 07:13:49;;;;;;;38.95;22.92;;;;;;;3.68;100.00;101862.22;5020072;28;20064;-58
2020/12/18 07:16:21;;;;;;;37.70;22.13;;;;;;;3.68;100.00;101861.38;5027949;28;20996;-57
2020/12/18 07:18:49;;;;;;;39.30;24.27;;;;;;;3.62;100.00;101858.84;5020886;28;20058;-61
2020/12/18 07:21:17;;;;;;;42.00;25.27;;;;;;;3.40;100.00;101861.66;5019137;28;20061;-59
2020/12/18 07:23:49;;;;;;;43.13;24.25;;;;;;;3.48;100.00;101858.97;5005399;28;20050;-56
2020/12/18 07:26:17;;;;;;;44.00;23.20;;;;;;;3.70;100.00;101857.03;5029043;28;20080;-60
2020/12/18 07:28:45;;;;;;;39.47;23.23;;;;;;;3.66;100.00;101858.78;5027548;28;20057;-60
2020/12/18 07:31:26;;;;;;;40.08;22.73;;;;;;;3.71;100.00;101866.56;5023902;28;20072;-60
2020/12/18 07:33:57;;;;;;;36.15;23.02;;;;;;;3.59;100.00;101862.31;5019974;28;20417;-62
2020/12/18 07:36:26;;;;;;;40.50;24.50;;;;;;;3.46;100.00;101868.53;5004201;28;20041;-61
2020/12/18 07:39:00;;;;;;;43.90;23.58;;;;;;;3.42;100.00;101869.44;5027662;28;20054;-61
2020/12/18 07:41:31;;;;;;;47.75;24.15;;;;;;;3.53;100.00;101875.41;5022826;28;20057;-60
2020/12/18 07:44:05;;;;;;;42.90;25.13;;;;;;;3.55;100.00;101865.84;5020609;28;20403;-60
2020/12/18 07:46:33;;;;;;;41.58;23.55;;;;;;;3.61;100.00;101865.78;5034233;23;20061;-58
2020/12/18 07:49:10;;;;;;;36.67;21.58;;;;;;;3.74;99.55;101866.53;5025661;28;20069;-59
2020/12/18 07:51:37;;;;;;;34.70;21.25;;;;;;;3.96;99.36;101867.13;5020536;28;20077;-60
2020/12/18 07:54:04;;;;;;;47.22;23.80;;;;;;;3.95;98.94;101865.41;5005322;28;20060;-58
2020/12/18 07:56:31;;;;;;;40.40;21.90;;;;;;;4.04;98.27;101867.91;5023184;28;20123;-56
2020/12/18 07:59:05;;;;;;;40.17;21.10;;;;;;;4.20;97.06;101866.84;5002465;28;20081;-59
2020/12/18 08:01:34;;;;;;;42.45;22.95;;;;;;;4.19;96.76;101870.34;5002504;28;20057;-56
2020/12/18 08:04:02;;;;;;;36.28;20.58;;;;;;;4.25;97.27;101864.19;5020803;28;20141;-55
2020/12/18 08:06:30;;;;;;;35.83;21.83;;;;;;;4.23;95.94;101865.94;5025336;28;20061;-61
2020/12/18 08:09:08;;;;;;;32.28;21.27;;;;;;;4.61;95.18;101864.56;4994859;28;20558;-59
2020/12/18 08:11:37;;;;;;;31.25;19.95;;;;;;;5.80;89.75;101866.00;5023329;28;20220;-61
2020/12/18 08:14:05;;;;;;;28.50;18.80;;;;;;;6.75;83.58;101857.94;5022938;28;20121;-56
2020/12/18 08:16:33;;;;;;;29.65;17.02;;;;;;;6.96;81.31;101865.28;5019406;28;20450;-58
2020/12/18 08:19:07;;;;;;;29.48;18.33;;;;;;;7.44;79.30;101866.72;5026044;28;20529;-54
2020/12/18 08:21:37;;;;;;;26.37;17.00;;;;;;;7.80;77.40;101876.22;5022948;28;20057;-57
2020/12/18 08:24:31;;;;;;;25.20;15.20;;;;;;;7.93;77.23;101871.50;5014546;28;20461;-58
2020/12/18 08:27:01;;;;;;;23.70;14.75;;;;;;;8.62;72.63;101865.09;5019811;28;20521;-59
2020/12/18 08:29:31;;;;;;;22.45;15.30;;;;;;;9.12;70.54;101873.13;5005907;28;20150;-58
2020/12/18 08:31:59;;;;;;;25.90;15.73;;;;;;;8.59;72.69;101870.44;5025148;28;20052;-58
2020/12/18 08:34:28;;;;;;;26.23;15.15;;;;;;;8.18;74.63;101876.91;4987480;28;20185;-55
2020/12/18 08:36:56;;;;;;;23.80;13.68;;;;;;;7.83;75.86;101877.88;5019846;28;20053;-54
2020/12/18 08:39:22;;;;;;;24.05;15.30;;;;;;;7.82;75.94;101889.28;5004988;28;20063;-54
2020/12/18 08:41:51;;;;;;;26.60;14.77;;;;;;;7.17;78.29;101892.72;5016049;28;20479;-58
2020/12/18 08:44:23;;;;;;;26.27;16.75;;;;;;;6.33;81.55;101887.63;5020760;28;20049;-56
2020/12/18 08:46:50;;;;;;;25.88;15.25;;;;;;;6.37;82.49;101888.44;5004055;28;20250;-58
2020/12/18 08:49:17;;;;;;;25.17;15.20;;;;;;;6.49;81.74;101882.94;5019955;28;20061;-55
2020/12/18 08:51:46;;;;;;;29.52;15.00;;;;;;;7.09;79.54;101886.78;5007027;28;20336;-61
2020/12/18 08:54:26;;;;;;;21.67;13.48;;;;;;;7.51;77.48;101895.31;5016433;28;20057;-53
2020/12/18 08:57:14;;;;;;;21.83;13.65;;;;;;;7.99;75.04;101889.69;5021745;28;20072;-60
2020/12/18 09:00:03;;;;;;;21.30;14.18;;;;;;;7.04;78.09;101886.91;4999951;28;20045;-54
2020/12/18 09:02:31;;;;;;;24.90;15.38;;;;;;;5.98;83.83;101887.47;5026248;28;20064;-57
2020/12/18 09:05:12;;;;;;;27.42;15.90;;;;;;;5.68;85.84;101891.53;5005586;28;20060;-58
2020/12/18 09:07:48;;;;;;;25.00;17.38;;;;;;;5.40;87.21;101892.00;4999852;28;20060;-60
2020/12/18 09:10:35;;;;;;;28.67;17.20;;;;;;;5.16;88.71;101889.81;5021833;28;20064;-57
2020/12/18 09:13:21;;;;;;;27.08;17.25;;;;;;;5.22;88.75;101895.81;5003070;28;20053;-55
2020/12/18 09:15:56;;;;;;;28.45;17.23;;;;;;;5.11;89.04;101895.09;5027036;28;20050;-54
2020/12/18 09:18:24;;;;;;;27.90;18.27;;;;;;;5.23;88.96;101900.13;5022120;28;20529;-58
2020/12/18 09:20:52;;;;;;;30.05;17.55;;;;;;;5.07;89.18;101889.06;5026115;28;20061;-55
2020/12/18 09:23:30;;;;;;;28.65;17.23;;;;;;;5.20;89.88;101889.72;5021298;28;20252;-59
2020/12/18 09:25:59;;;;;;;29.15;17.40;;;;;;;5.20;89.26;101891.47;5025839;28;20045;-53
2020/12/18 09:28:26;;;;;;;30.65;18.35;;;;;;;5.20;89.83;101888.88;5016300;28;20085;-60
2020/12/18 09:30:56;;;;;;;27.38;18.02;;;;;;;5.13;90.21;101888.09;5024427;28;20069;-55
2020/12/18 09:33:25;;;;;;;31.33;18.67;;;;;;;5.12;90.17;101888.13;5021346;28;20053;-58
2020/12/18 09:35:54;;;;;;;27.50;17.17;;;;;;;5.12;89.91;101890.75;5026010;28;20429;-57
2020/12/18 09:38:29;;;;;;;30.30;18.75;;;;;;;5.21;90.67;101893.19;5018616;28;20103;-59
2020/12/18 09:40:57;;;;;;;27.03;17.97;;;;;;;5.41;89.12;101880.69;5005652;28;20079;-58
2020/12/18 09:43:24;;;;;;;25.92;17.20;;;;;;;5.53;88.67;101890.88;5018644;28;20530;-56
2020/12/18 09:45:51;;;;;;;28.13;17.13;;;;;;;5.67;88.11;101881.94;5021027;28;20056;-56
2020/12/18 09:48:18;;;;;;;28.52;17.70;;;;;;;5.79;88.08;101882.59;5018216;28;20053;-59
2020/12/18 09:50:45;;;;;;;32.28;18.45;;;;;;;5.98;86.56;101877.88;5023895;28;20049;-61
2020/12/18 09:53:12;;;;;;;24.98;16.05;;;;;;;5.91;86.37;101883.25;5016455;28;20053;-59
2020/12/18 09:55:39;;;;;;;29.33;16.52;;;;;;;6.11;86.33;101886.34;5023446;28;20049;-54
2020/12/18 09:58:06;;;;;;;25.55;16.00;;;;;;;6.25;85.63;101879.09;5018628;28;20346;-59
2020/12/18 10:00:33;;;;;;;24.73;15.95;;;;;;;6.50;84.47;101881.19;5020558;28;20053;-54
2020/12/18 10:03:00;;;;;;;23.55;15.60;;;;;;;6.43;84.22;101876.97;5019879;28;20497;-55
2020/12/18 10:05:27;;;;;;;24.48;16.05;;;;;;;6.47;85.23;101876.88;5026931;28;20052;-57
2020/12/18 10:07:54;;;;;;;24.23;14.90;;;;;;;6.72;83.45;101878.97;5019146;28;20062;-58
2020/12/18 10:10:20;;;;;;;22.88;15.43;;;;;;;6.52;83.74;101875.00;5018722;28;20099;-56
2020/12/18 10:12:47;;;;;;;21.77;15.05;;;;;;;6.65;83.13;101865.13;5024263;28;20064;-57
2020/12/18 10:15:14;;;;;;;23.70;14.07;;;;;;;6.80;82.71;101872.66;5006054;28;20060;-57
2020/12/18 10:17:41;;;;;;;25.02;15.70;;;;;;;6.99;82.47;101870.44;5018782;28;20075;-58
2020/12/18 10:20:07;;;;;;;22.52;15.05;;;;;;;6.93;82.34;101869.72;5026791;28;20062;-56
2020/12/18 10:22:34;;;;;;;23.60;15.48;;;;;;;6.84;83.17;101868.19;4997969;28;20042;-57
2020/12/18 10:25:01;;;;;;;25.90;14.73;;;;;;;6.71;83.00;101861.50;5025045;28;20155;-60
2020/12/18 10:27:27;;;;;;;27.23;15.43;;;;;;;6.67;83.37;101860.75;5020468;28;20221;-60
2020/12/18 10:29:57;;;;;;;26.98;16.17;;;;;;;6.48;84.96;101862.03;5022037;28;20118;-54
2020/12/18 10:32:27;;;;;;;26.17;16.50;;;;;;;6.54;84.44;101860.16;5027349;28;20108;-59
2020/12/18 10:34:54;;;;;;;24.38;15.20;;;;;;;6.73;83.55;101860.59;5008860;28;20132;-55
2020/12/18 10:37:24;;;;;;;23.50;15.77;;;;;;;6.79;83.44;101846.50;5028154;28;20125;-61
2020/12/18 10:39:51;;;;;;;21.60;14.25;;;;;;;6.67;83.85;101852.03;5027258;28;20616;-55
2020/12/18 10:42:18;;;;;;;25.33;15.45;;;;;;;6.84;85.24;101842.00;5028310;28;20053;-52
2020/12/18 10:44:44;;;;;;;24.85;15.80;;;;;;;6.70;84.41;101842.34;5025763;28;20076;-57
2020/12/18 10:47:11;;;;;;;28.05;15.40;;;;;;;6.41;85.52;101850.00;5008118;28;20050;-56
2020/12/18 10:49:38;;;;;;;25.58;15.35;;;;;;;6.65;85.08;101846.81;5025234;28;20062;-58
2020/12/18 10:52:05;;;;;;;24.92;15.63;;;;;;;6.40;85.36;101856.13;5005339;28;20394;-58
2020/12/18 10:54:32;;;;;;;23.55;14.82;;;;;;;6.51;84.68;101851.50;5023028;28;20140;-56
2020/12/18 10:57:08;;;;;;;23.13;15.27;;;;;;;6.52;84.97;101841.00;5023770;28;20086;-57
2020/12/18 10:59:35;;;;;;;24.83;15.30;;;;;;;6.38;85.25;101855.28;5023321;28;20550;-53
2020/12/18 11:02:05;;;;;;;27.40;15.85;;;;;;;6.37;85.86;101856.19;5028645;28;20052;-58
2020/12/18 11:04:31;;;;;;;25.90;15.45;;;;;;;6.38;85.90;101850.91;5020445;28;20065;-57
2020/12/18 11:06:58;;;;;;;22.33;14.70;;;;;;;6.45;85.72;101852.50;5024226;28;20076;-55
2020/12/18 11:09:25;;;;;;;24.40;15.65;;;;;;;6.36;85.91;101854.47;5023292;28;20057;-59
2020/12/18 11:11:54;;;;;;;27.05;15.73;;;;;;;6.53;85.30;101850.59;5026060;28;20422;-57
2020/12/18 11:14:21;;;;;;;27.38;15.00;;;;;;;6.59;86.08;101853.06;5025515;28;20077;-58
2020/12/18 11:16:48;;;;;;;25.13;14.55;;;;;;;6.86;86.34;101845.47;5024572;28;20065;-56
2020/12/18 11:19:15;;;;;;;31.92;15.90;;;;;;;6.60;86.19;101844.31;5026108;28;20053;-59
2020/12/18 11:21:46;;;;;;;24.02;14.45;;;;;;;6.53;86.32;101837.50;5025230;28;20455;-59